Beaverdam, Utah
Current Conditions -  °F | °C
As of 10:51 AM on Thursday 18 Dec 2014 (Local Time) from KLGU Reporting Station
Few Clouds Few Clouds  
Wind Chill: 34°   Ceiling: Unl
Heat Index: 34°   Visibility: 10mi
Dew Point: 26°   Wind: 0mph
Humidity: 73%   Direction: NA
Pressure: 30.16"   Gusts: NA
Location:  41.8005°N, 112.082°W
Report Text: KLGU 181751Z AUTO 00000KT 10SM FEW048 01/M03 A3016 RMK AO2 SLP226 T00111033 10011 21022 51011
Loading
Personal Weather Stations






























Interactive Weather Map New forecast layout! Learn more

10-Day Weather Forecast

Advertisements
Track Severe Weather on mobile